Time;durP1;ratioP1;P1;durP2;ratioP2;P2;SDS_P1;SDS_P2;PMS_P1;PMS_P2;Temp;Humidity;BMP_temperature;BMP_pressure;BME280_temperature;BME280_humidity;BME280_pressure;Samples;Min_cycle;Max_cycle;Signal;HPM_P1;HPM_P2
2023/07/19 00:00:29;;;;;;;2.30;2.20;;;20.50;99.90;;;21.01;69.85;101326.03;5055553;28;20049;-74
2023/07/19 00:02:57;;;;;;;2.47;2.38;;;20.50;99.90;;;20.94;69.70;101321.81;5051342;28;20084;-73
2023/07/19 00:05:26;;;;;;;2.30;2.20;;;20.50;99.90;;;20.92;70.20;101325.50;5055102;28;20465;-74
2023/07/19 00:07:54;;;;;;;2.20;2.10;;;20.50;99.90;;;20.83;70.10;101336.63;5055083;28;20041;-76
2023/07/19 00:10:23;;;;;;;2.40;2.30;;;20.40;99.90;;;20.82;71.26;101326.78;5055300;28;20090;-74
2023/07/19 00:12:52;;;;;;;2.60;2.50;;;20.40;99.90;;;20.87;72.78;101332.84;5055001;28;20124;-74
2023/07/19 00:15:25;;;;;;;2.42;2.33;;;20.40;99.90;;;20.81;72.77;101327.72;5054972;28;20561;-74
2023/07/19 00:17:53;;;;;;;2.35;2.25;;;20.40;99.90;;;20.80;72.44;101324.16;5055159;28;20045;-74
2023/07/19 00:20:22;;;;;;;2.35;2.25;;;20.30;99.90;;;20.82;72.99;101316.03;5054825;28;20514;-74
2023/07/19 00:22:50;;;;;;;2.30;2.20;;;20.40;99.90;;;20.76;74.17;101306.38;5054809;28;20604;-74
2023/07/19 00:25:18;;;;;;;2.40;2.30;;;20.40;99.90;;;20.80;73.81;101313.41;5049889;28;20049;-74
2023/07/19 00:27:48;;;;;;;3.17;3.08;;;20.40;99.90;;;20.84;73.45;101301.59;5054697;28;20075;-74
2023/07/19 00:30:18;;;;;;;2.50;2.40;;;20.40;99.90;;;20.82;72.86;101297.19;5051487;28;20490;-74
2023/07/19 00:32:47;;;;;;;2.50;2.40;;;20.40;99.90;;;20.84;73.18;101285.44;5055023;28;20053;-74
2023/07/19 00:35:15;;;;;;;2.33;2.22;;;20.40;99.90;;;20.85;73.16;101289.88;5054980;28;20056;-74
2023/07/19 00:37:44;;;;;;;2.25;2.15;;;20.40;99.90;;;20.88;73.52;101287.09;5054871;28;20049;-74
2023/07/19 00:40:13;;;;;;;2.40;2.30;;;20.50;99.90;;;20.96;74.94;101300.22;5054538;28;20546;-74
2023/07/19 00:42:41;;;;;;;2.30;2.20;;;20.50;99.90;;;20.93;75.58;101293.16;5054774;28;20060;-75
2023/07/19 00:45:10;;;;;;;2.53;2.42;;;20.50;99.90;;;20.93;75.12;101294.94;5053319;28;20462;-74
2023/07/19 00:47:41;;;;;;;2.40;2.30;;;20.50;99.90;;;20.90;74.16;101292.41;5050921;28;20102;-74
2023/07/19 00:50:09;;;;;;;2.60;2.50;;;20.50;99.90;;;20.83;74.52;101286.38;5054369;28;20099;-74
2023/07/19 00:52:38;;;;;;;2.40;2.30;;;20.40;99.90;;;20.80;74.70;101283.81;5051229;28;20077;-74
2023/07/19 00:55:08;;;;;;;2.75;2.65;;;20.40;99.90;;;20.80;74.67;101282.94;5053594;28;20097;-74
2023/07/19 00:57:37;;;;;;;2.37;2.27;;;20.30;99.90;;;20.83;74.81;101286.38;5054529;28;20103;-75
2023/07/19 01:00:08;;;;;;;2.70;2.60;;;20.40;99.90;;;20.78;75.50;101276.75;5054238;28;20437;-74
2023/07/19 01:02:37;;;;;;;2.50;2.40;;;20.40;99.90;;;20.80;74.99;101291.00;5054436;28;20049;-75
2023/07/19 01:05:08;;;;;;;2.72;2.63;;;20.30;99.90;;;20.83;75.40;101285.53;5069770;28;20053;-74
2023/07/19 01:07:37;;;;;;;2.25;2.15;;;20.40;99.90;;;20.87;74.84;101285.31;5050939;28;20398;-74
2023/07/19 01:10:07;;;;;;;2.38;2.28;;;20.40;99.90;;;20.88;74.29;101275.44;5054153;28;20041;-74
2023/07/19 01:12:37;;;;;;;2.42;2.33;;;20.40;99.90;;;20.96;75.43;101286.78;5051486;28;20046;-75
2023/07/19 01:15:09;;;;;;;2.50;2.40;;;20.50;99.90;;;21.05;73.15;101287.31;5054127;28;20041;-74
2023/07/19 01:17:38;;;;;;;2.53;2.42;;;20.60;99.90;;;21.07;71.42;101281.84;5052906;28;20115;-74
2023/07/19 01:20:10;;;;;;;2.53;2.42;;;20.60;99.90;;;21.04;72.75;101284.69;5053779;28;20502;-74
2023/07/19 01:22:42;;;;;;;2.65;2.55;;;20.60;99.90;;;21.02;73.40;101279.34;5041147;28;20136;-74
2023/07/19 01:25:10;;;;;;;2.78;2.67;;;20.60;99.90;;;21.07;75.32;101279.16;5053942;28;20114;-74
2023/07/19 01:27:39;;;;;;;2.63;2.53;;;20.60;99.90;;;21.06;76.74;101280.97;5052530;28;20096;-74
2023/07/19 01:30:09;;;;;;;2.65;2.55;;;20.60;99.90;;;21.07;78.28;101281.84;5053829;28;20095;-74
2023/07/19 01:32:37;;;;;;;2.47;2.38;;;20.60;99.90;;;21.10;78.29;101287.13;5053614;28;20383;-74
2023/07/19 01:35:07;;;;;;;2.65;2.55;;;20.60;99.90;;;21.04;78.11;101280.16;5053419;28;20110;-74
2023/07/19 01:37:36;;;;;;;2.70;2.60;;;20.60;99.90;;;20.86;76.41;101254.00;5052471;28;20048;-74
2023/07/19 01:40:10;;;;;;;2.50;2.40;;;20.50;99.90;;;20.90;75.78;101265.50;5049475;28;20056;-74
2023/07/19 01:42:39;;;;;;;2.55;2.45;;;20.50;99.90;;;20.99;76.80;101271.38;5053382;28;20490;-75
2023/07/19 01:45:08;;;;;;;2.20;2.10;;;20.50;99.90;;;21.00;77.22;101265.03;5053549;28;20045;-74
2023/07/19 01:47:37;;;;;;;2.30;2.20;;;20.50;99.90;;;20.96;77.19;101270.63;5052290;28;20057;-74
2023/07/19 01:50:07;;;;;;;4.18;4.00;;;20.50;99.90;;;21.00;77.16;101274.94;5051397;28;20469;-75
2023/07/19 01:52:35;;;;;;;2.83;2.72;;;20.50;99.90;;;21.01;76.54;101277.59;5053427;28;20049;-75
2023/07/19 01:55:04;;;;;;;2.75;2.65;;;20.50;99.90;;;21.10;76.49;101279.06;5052211;28;20053;-74
2023/07/19 01:57:34;;;;;;;2.30;2.20;;;20.60;99.90;;;21.04;77.15;101268.53;5049090;28;20045;-74
2023/07/19 02:00:03;;;;;;;2.47;2.38;;;20.60;99.90;;;21.02;79.08;101265.03;5032608;28;20052;-75
2023/07/19 02:02:43;;;;;;;2.45;2.35;;;20.50;99.90;;;21.01;78.99;101261.47;5053017;28;20053;-74
2023/07/19 02:05:12;;;;;;;2.58;2.47;;;20.50;99.90;;;21.00;79.40;101270.41;5053043;28;20059;-73
2023/07/19 02:07:39;;;;;;;2.40;2.30;;;20.60;99.90;;;20.91;79.70;101257.34;5053078;28;20124;-74
2023/07/19 02:10:09;;;;;;;2.63;2.53;;;20.50;99.90;;;20.98;79.33;101275.00;5051820;28;20126;-74
2023/07/19 02:12:39;;;;;;;3.22;3.10;;;20.50;99.90;;;20.99;78.06;101268.69;5049306;28;20460;-74
2023/07/19 02:15:08;;;;;;;2.30;2.20;;;20.50;99.90;;;21.00;76.99;101265.03;5051842;28;20125;-73
2023/07/19 02:17:36;;;;;;;2.47;2.38;;;20.50;99.90;;;20.83;76.79;101245.19;5053017;28;20044;-74
2023/07/19 02:20:07;;;;;;;2.40;2.30;;;20.40;99.90;;;20.90;77.84;101255.63;5053019;28;20033;-74
2023/07/19 02:22:35;;;;;;;2.45;2.35;;;20.50;99.90;;;20.94;78.60;101256.38;5052817;28;20486;-74
2023/07/19 02:25:04;;;;;;;2.30;2.20;;;20.50;99.90;;;20.89;79.15;101261.91;5052873;28;20061;-74
2023/07/19 02:27:33;;;;;;;2.72;2.63;;;20.50;99.90;;;20.79;79.28;101249.78;5052846;28;20148;-74
2023/07/19 02:30:05;;;;;;;2.50;2.40;;;20.40;99.90;;;20.67;77.82;101251.16;5052905;28;20051;-74
2023/07/19 02:32:33;;;;;;;2.92;2.83;;;20.30;99.90;;;20.58;78.24;101256.91;5049275;28;20084;-74
2023/07/19 02:35:02;;;;;;;2.45;2.35;;;20.10;99.90;;;20.57;78.66;101251.59;5052880;28;20041;-74
2023/07/19 02:37:30;;;;;;;2.67;2.58;;;20.10;99.90;;;20.61;79.62;101254.06;5052466;28;20045;-74
2023/07/19 02:39:59;;;;;;;2.20;2.10;;;20.10;99.90;;;20.69;79.36;101251.97;5052771;28;20155;-74
2023/07/19 02:42:27;;;;;;;2.65;2.55;;;20.20;99.90;;;20.78;78.34;101250.72;5050073;28;20092;-74
2023/07/19 02:44:56;;;;;;;2.38;2.28;;;20.20;99.90;;;20.77;77.66;101248.97;5052407;28;20048;-74
2023/07/19 02:47:25;;;;;;;2.50;2.40;;;20.30;99.90;;;20.66;77.38;101222.53;5052677;28;20128;-74
2023/07/19 02:49:54;;;;;;;2.20;2.10;;;20.40;99.90;;;20.92;76.39;101250.19;5068018;28;20055;-74
2023/07/19 02:52:22;;;;;;;2.28;2.17;;;20.50;99.90;;;20.92;75.51;101240.31;5052707;28;20057;-74
2023/07/19 02:54:51;;;;;;;2.42;2.33;;;20.50;99.90;;;20.91;74.60;101235.84;5051270;28;20056;-74
2023/07/19 02:57:19;;;;;;;2.70;2.60;;;20.50;99.90;;;20.97;77.08;101245.47;5048951;28;20044;-74
2023/07/19 02:59:47;;;;;;;2.50;2.40;;;20.50;99.90;;;21.04;76.57;101250.56;5052580;28;20076;-74
2023/07/19 03:02:16;;;;;;;2.40;2.30;;;20.50;99.90;;;21.06;75.63;101248.69;5048964;28;20115;-74
2023/07/19 03:04:46;;;;;;;4.13;3.83;;;20.60;99.90;;;21.05;74.59;101246.94;5052491;28;20099;-75
2023/07/19 03:07:14;;;;;;;2.70;2.60;;;20.60;99.90;;;21.00;75.96;101245.38;5052222;28;20523;-74
2023/07/19 03:09:43;;;;;;;2.40;2.30;;;20.60;99.90;;;21.00;78.02;101242.66;5052408;28;20077;-75
2023/07/19 03:12:11;;;;;;;2.17;2.08;;;20.50;99.90;;;21.01;78.55;101249.81;5052442;28;20120;-74
2023/07/19 03:14:40;;;;;;;2.40;2.30;;;20.60;99.90;;;20.93;79.14;101244.72;5052143;28;20075;-74
2023/07/19 03:17:08;;;;;;;2.30;2.20;;;20.50;99.90;;;20.90;79.61;101243.97;5051292;28;20057;-74
2023/07/19 03:19:37;;;;;;;2.63;2.53;;;20.50;99.90;;;20.90;80.20;101243.97;5056376;28;20037;-75
2023/07/19 03:22:07;;;;;;;3.03;2.92;;;20.40;99.90;;;20.76;79.96;101240.97;5052692;28;20441;-74
2023/07/19 03:24:35;;;;;;;2.37;2.27;;;20.30;99.90;;;20.73;79.61;101241.09;5054997;28;20053;-74
2023/07/19 03:27:04;;;;;;;2.30;2.20;;;20.20;99.90;;;20.66;79.52;101243.16;5055785;28;20360;-74
2023/07/19 03:29:34;;;;;;;2.30;2.20;;;20.20;99.90;;;20.68;80.65;101235.91;5055205;28;20061;-74
2023/07/19 03:32:02;;;;;;;2.63;2.53;;;20.20;99.90;;;20.61;80.87;101227.19;5053300;28;20454;-74
2023/07/19 03:34:30;;;;;;;2.72;2.63;;;20.20;99.90;;;20.68;80.47;101233.22;5071402;28;20076;-74
2023/07/19 03:37:00;;;;;;;2.30;2.20;;;20.20;99.90;;;20.69;81.20;101238.50;5054640;28;20049;-74
2023/07/19 03:39:29;;;;;;;2.30;2.20;;;20.30;99.90;;;20.60;81.16;101251.44;5055683;28;20482;-74
2023/07/19 03:41:58;;;;;;;4.53;4.32;;;20.20;99.90;;;20.70;81.49;101242.09;5050758;28;20041;-74
2023/07/19 03:44:26;;;;;;;2.72;2.63;;;20.20;99.90;;;20.77;81.88;101235.53;5054602;28;20106;-75
2023/07/19 03:46:55;;;;;;;2.55;2.45;;;20.30;99.90;;;20.77;81.55;101238.22;5054395;28;20059;-74
2023/07/19 03:49:23;;;;;;;2.70;2.60;;;20.30;99.90;;;20.74;81.68;101246.41;5054406;28;20503;-75
2023/07/19 03:51:52;;;;;;;2.53;2.42;;;20.30;99.90;;;20.74;81.40;101238.34;5052670;28;20046;-75
2023/07/19 03:54:21;;;;;;;2.45;2.35;;;20.30;99.90;;;20.75;81.62;101240.09;5070728;28;20052;-74
2023/07/19 03:56:51;;;;;;;2.30;2.20;;;20.30;99.90;;;20.75;81.58;101239.22;5054315;28;20056;-75
2023/07/19 03:59:19;;;;;;;2.43;2.33;;;20.30;99.90;;;20.76;81.89;101230.22;5055586;28;20099;-75
2023/07/19 04:01:47;;;;;;;2.90;2.80;;;20.30;99.90;;;20.61;81.39;101229.88;5055431;28;20287;-75
2023/07/19 04:04:16;;;;;;;2.50;2.40;;;20.20;99.90;;;20.33;82.24;101221.16;5054264;28;20037;-75
2023/07/19 04:06:44;;;;;;;2.58;2.47;;;19.90;99.90;;;20.33;83.39;101215.78;5051562;28;20047;-73
2023/07/19 04:09:12;;;;;;;2.35;2.25;;;19.80;99.90;;;20.13;84.32;101217.47;5054011;28;20140;-74
2023/07/19 04:11:41;;;;;;;2.65;2.55;;;19.70;99.90;;;20.15;84.23;101219.13;5055263;28;20049;-75
2023/07/19 04:14:11;;;;;;;2.30;2.20;;;19.60;99.90;;;20.16;83.75;101228.97;5055026;28;20465;-74
2023/07/19 04:16:41;;;;;;;2.40;2.30;;;19.70;99.90;;;20.25;84.84;101233.13;5052110;28;20050;-74
2023/07/19 04:19:10;;;;;;;2.70;2.60;;;19.80;99.90;;;20.34;84.71;101233.66;5070714;28;20056;-75
2023/07/19 04:21:38;;;;;;;2.65;2.55;;;19.80;99.90;;;20.35;84.74;101234.53;5055211;28;20868;-75
2023/07/19 04:24:07;;;;;;;2.60;2.50;;;19.90;99.90;;;20.48;84.19;101235.81;5070364;28;20099;-74
2023/07/19 04:26:37;;;;;;;2.85;2.75;;;20.00;99.90;;;20.41;83.35;101245.94;5070612;28;20090;-75
2023/07/19 04:29:06;;;;;;;2.63;2.53;;;20.00;99.90;;;20.32;83.01;101230.19;5048606;28;20067;-74
2023/07/19 04:31:36;;;;;;;2.50;2.40;;;19.90;99.90;;;20.31;82.09;101228.41;5053341;28;20482;-74
2023/07/19 04:34:04;;;;;;;2.47;2.38;;;19.90;99.90;;;20.39;82.42;101222.72;5051540;28;20056;-75
2023/07/19 04:36:33;;;;;;;2.58;2.47;;;19.90;99.90;;;20.42;83.22;101225.31;5054629;28;20129;-74
2023/07/19 04:39:02;;;;;;;2.30;2.20;;;20.00;99.90;;;20.55;82.71;101227.47;5054716;28;20045;-74
2023/07/19 04:41:31;;;;;;;2.45;2.35;;;20.20;99.90;;;20.45;83.02;101233.25;5052659;28;20510;-74
2023/07/19 04:43:59;;;;;;;2.58;2.47;;;20.10;99.90;;;20.36;83.63;101212.97;5054744;28;20490;-74
2023/07/19 04:46:28;;;;;;;2.20;2.10;;;20.10;99.90;;;20.47;83.77;101231.38;5053442;28;20045;-74
2023/07/19 04:48:58;;;;;;;2.40;2.30;;;20.10;99.90;;;20.47;82.59;101228.69;5054268;28;20502;-74
2023/07/19 04:51:26;;;;;;;2.47;2.37;;;20.00;99.90;;;20.44;81.64;101231.50;5049631;28;20051;-74
2023/07/19 04:53:55;;;;;;;3.08;2.97;;;20.00;99.90;;;20.52;81.18;101238.31;5054351;28;20315;-74
2023/07/19 04:56:23;;;;;;;2.40;2.30;;;20.10;99.90;;;20.57;81.67;101238.16;5050888;28;20468;-74
2023/07/19 04:58:51;;;;;;;2.30;2.20;;;20.10;99.90;;;20.63;81.15;101241.44;5054497;28;20036;-74
2023/07/19 05:01:20;;;;;;;2.80;2.70;;;20.20;99.90;;;20.68;80.49;101241.28;5054331;28;20057;-74
2023/07/19 05:03:49;;;;;;;2.60;2.50;;;20.20;99.90;;;20.78;80.85;101249.84;5051971;28;20048;-74
2023/07/19 05:06:19;;;;;;;2.50;2.40;;;20.30;99.90;;;20.22;80.41;101142.81;5069735;28;20041;-74
2023/07/19 05:08:47;;;;;;;2.30;2.20;;;20.40;99.90;;;20.93;79.81;101243.84;5052998;28;20394;-74
2023/07/19 05:11:19;;;;;;;2.72;2.63;;;20.50;99.90;;;21.00;78.85;101250.75;5054156;28;20093;-74
2023/07/19 05:13:48;;;;;;;2.55;2.45;;;20.60;99.90;;;21.01;78.18;101252.50;5049482;28;20056;-74
2023/07/19 05:16:18;;;;;;;;;;;20.60;99.90;;;21.01;80.04;101248.00;5053274;28;20045;-74
2023/07/19 05:18:47;;;;;;;2.45;2.35;;;20.60;99.90;;;21.02;80.70;101227.38;5052876;28;19924;-74
2023/07/19 05:21:16;;;;;;;2.45;2.35;;;20.70;99.90;;;21.21;80.27;101247.19;5052723;28;20056;-74
2023/07/19 05:23:48;;;;;;;2.83;2.72;;;20.70;99.90;;;21.25;80.12;101248.81;5051734;28;20045;-74
2023/07/19 05:26:16;;;;;;;2.35;2.25;;;20.80;99.90;;;21.35;79.69;101247.50;5053891;28;20045;-75
2023/07/19 05:28:45;;;;;;;2.80;2.70;;;20.90;99.90;;;21.42;79.18;101254.34;5053598;28;20041;-74
2023/07/19 05:31:13;;;;;;;2.47;2.38;;;21.00;99.90;;;21.43;78.62;101246.19;5049483;28;20095;-74
2023/07/19 05:33:42;;;;;;;2.10;2.00;;;21.00;99.90;;;21.48;78.25;101251.41;5069219;28;20469;-74
2023/07/19 05:36:11;;;;;;;2.60;2.50;;;21.10;99.90;;;21.51;78.33;101249.44;5053789;28;20072;-74
2023/07/19 05:38:39;;;;;;;2.47;2.38;;;21.10;99.90;;;21.55;78.67;101252.88;5053769;28;20045;-74
2023/07/19 05:41:09;;;;;;;2.42;2.33;;;21.10;99.90;;;21.65;79.89;101251.53;5052995;28;20604;-75
2023/07/19 05:43:37;;;;;;;2.47;2.37;;;21.20;99.90;;;21.62;78.65;101248.09;5053593;28;20437;-75
2023/07/19 05:46:06;;;;;;;2.70;2.60;;;21.20;99.90;;;21.68;78.11;101247.84;5053248;28;20127;-74
2023/07/19 05:48:36;;;;;;;2.30;2.20;;;21.30;99.90;;;21.76;77.95;101251.03;5053220;28;20135;-74
2023/07/19 05:51:08;;;;;;;2.40;2.30;;;21.30;99.90;;;21.83;78.28;101248.06;5053148;28;20060;-73
2023/07/19 05:53:37;;;;;;;2.30;2.20;;;21.40;99.90;;;21.94;78.47;101248.47;5064797;28;20053;-75
2023/07/19 05:56:06;;;;;;;2.58;2.47;;;21.50;99.90;;;22.07;79.02;101248.75;5052026;28;20061;-74
2023/07/19 05:58:35;;;;;;;2.30;2.20;;;21.70;99.90;;;22.16;79.21;101240.28;5052981;28;20049;-75
2023/07/19 06:01:07;;;;;;;3.78;3.58;;;21.80;99.90;;;22.22;78.36;101250.78;5053412;28;20053;-75
2023/07/19 06:03:36;;;;;;;2.25;2.15;;;21.90;99.90;;;22.38;78.28;101255.38;5053119;28;20045;-75
2023/07/19 06:06:05;;;;;;;2.33;2.22;;;22.00;99.90;;;22.47;76.98;101253.19;5052879;28;20119;-75
2023/07/19 06:08:34;;;;;;;2.10;2.00;;;22.10;99.90;;;22.57;76.35;101251.84;5052852;28;20053;-75
2023/07/19 06:11:03;;;;;;;2.20;2.10;;;22.20;99.90;;;22.69;75.59;101254.81;5053065;28;20440;-74
2023/07/19 06:13:31;;;;;;;2.33;2.22;;;22.30;99.90;;;22.81;73.73;101259.63;5049210;28;20131;-74
2023/07/19 06:16:01;;;;;;;2.10;2.00;;;22.40;99.90;;;22.91;72.71;101257.34;5051633;28;20055;-75
2023/07/19 06:18:30;;;;;;;2.38;2.28;;;22.60;99.90;;;23.02;71.78;101257.69;5052766;28;20094;-74
2023/07/19 06:20:58;;;;;;;2.33;2.22;;;22.60;99.90;;;23.05;70.71;101246.75;5052705;28;20044;-75
2023/07/19 06:23:26;;;;;;;2.33;2.22;;;22.70;99.90;;;23.12;70.99;101246.38;5052759;28;20037;-75
2023/07/19 06:25:55;;;;;;;2.00;1.90;;;22.80;99.90;;;23.18;70.78;101248.78;5060224;28;20064;-75
2023/07/19 06:28:23;;;;;;;2.30;2.20;;;22.80;99.90;;;23.28;70.57;101255.47;5053094;28;20132;-75
2023/07/19 06:30:52;;;;;;;2.58;2.47;;;23.00;99.90;;;23.30;71.31;101248.16;5052603;28;20045;-75
2023/07/19 06:33:22;;;;;;;3.65;3.45;;;23.00;99.90;;;23.14;71.30;101251.69;5052544;28;20112;-75
2023/07/19 06:35:51;;;;;;;2.40;2.30;;;22.80;99.90;;;23.07;69.96;101263.75;5049091;28;20363;-75
2023/07/19 06:38:19;;;;;;;2.47;2.38;;;22.70;99.90;;;23.11;70.60;101262.66;5052554;28;20506;-75
2023/07/19 06:40:48;;;;;;;2.50;2.40;;;22.70;99.90;;;23.23;70.35;101256.63;5052474;28;20132;-75
2023/07/19 06:43:17;;;;;;;2.42;2.33;;;22.90;99.90;;;23.27;70.23;101251.00;5052453;28;20076;-75
2023/07/19 06:45:47;;;;;;;2.25;2.15;;;23.00;99.90;;;23.22;70.77;101262.97;5049704;28;20061;-75
2023/07/19 06:48:15;;;;;;;2.20;2.10;;;22.90;99.90;;;22.97;71.08;101259.75;5052415;28;20154;-75
2023/07/19 06:50:45;;;;;;;2.47;2.38;;;22.70;99.90;;;22.99;70.87;101245.25;5052473;28;20052;-74
2023/07/19 06:53:13;;;;;;;2.30;2.20;;;22.70;99.90;;;23.14;70.49;101259.78;5054704;28;20106;-75
2023/07/19 06:55:42;;;;;;;2.30;2.20;;;22.80;99.90;;;23.14;69.55;101267.88;5056764;28;20341;-75
2023/07/19 06:58:10;;;;;;;2.40;2.30;;;22.80;99.90;;;23.12;70.01;101261.69;5052596;28;20052;-75
2023/07/19 07:00:39;;;;;;;2.40;2.30;;;22.80;99.90;;;23.18;70.01;101269.50;5056624;28;20449;-74
2023/07/19 07:03:07;;;;;;;2.40;2.30;;;22.90;99.90;;;23.28;69.73;101268.06;5056307;28;20119;-74
2023/07/19 07:05:35;;;;;;;9.05;5.68;;;23.00;99.90;;;23.25;69.39;101270.91;5056801;28;20057;-75
2023/07/19 07:08:05;;;;;;;2.50;2.40;;;22.90;99.90;;;23.26;70.48;101275.38;5056241;28;20037;-75
2023/07/19 07:10:34;;;;;;;2.53;2.42;;;22.90;99.90;;;23.21;70.01;101269.31;5056371;28;20049;-76
2023/07/19 07:13:02;;;;;;;2.60;2.50;;;22.90;99.90;;;22.90;70.88;101251.06;5056336;28;20395;-75
2023/07/19 07:15:31;;;;;;;2.53;2.42;;;22.60;99.90;;;23.05;70.50;101263.81;5055023;28;20103;-75
2023/07/19 07:17:59;;;;;;;2.30;2.20;;;22.70;99.90;;;22.89;71.56;101267.34;5056293;28;20048;-75
2023/07/19 07:20:27;;;;;;;3.67;3.45;;;22.60;99.90;;;23.10;71.48;101263.59;5056124;28;20044;-75
2023/07/19 07:22:56;;;;;;;2.33;2.22;;;22.70;99.90;;;23.20;70.24;101270.28;5052163;28;20076;-75
2023/07/19 07:25:26;;;;;;;2.28;2.17;;;22.90;99.90;;;23.36;69.88;101273.13;5055943;28;20044;-75
2023/07/19 07:27:54;;;;;;;2.45;2.35;;;23.00;99.90;;;23.43;69.46;101271.84;5052641;28;20046;-76
2023/07/19 07:30:22;;;;;;;2.20;2.10;;;23.10;99.90;;;23.50;68.38;101276.84;5071435;28;20072;-75
2023/07/19 07:32:52;;;;;;;2.47;2.38;;;23.20;99.90;;;23.58;67.61;101282.75;5056003;28;20103;-75
2023/07/19 07:35:20;;;;;;;2.33;2.22;;;23.30;99.90;;;23.62;67.23;101278.94;5055754;28;20131;-75
2023/07/19 07:37:49;;;;;;;2.65;2.55;;;23.30;99.90;;;23.67;66.83;101274.19;5055614;28;20091;-74
2023/07/19 07:40:17;;;;;;;2.00;1.90;;;23.40;99.90;;;23.75;67.21;101279.19;5055606;28;20044;-74
2023/07/19 07:42:47;;;;;;;2.15;2.05;;;23.40;99.90;;;23.62;67.97;101276.22;5062924;28;20053;-75
2023/07/19 07:45:15;;;;;;;2.13;2.03;;;23.30;99.90;;;23.72;68.01;101282.91;5051750;28;20127;-75
2023/07/19 07:47:44;;;;;;;2.20;2.10;;;23.30;99.90;;;23.68;68.67;101253.41;5055520;28;20361;-75
2023/07/19 07:50:12;;;;;;;2.05;1.95;;;23.50;99.90;;;23.78;68.52;101277.19;5055610;28;20047;-73
2023/07/19 07:52:41;;;;;;;2.40;2.28;;;23.50;99.90;;;23.41;67.38;101271.94;5055479;28;20044;-73
2023/07/19 07:55:09;;;;;;;2.90;2.80;;;23.10;99.90;;;23.40;68.00;101270.19;5055377;28;20119;-73
2023/07/19 07:57:38;;;;;;;2.33;2.22;;;23.00;99.90;;;23.42;67.36;101268.28;5055293;28;20072;-78
2023/07/19 08:00:11;;;;;;;2.50;2.40;;;23.00;99.90;;;23.56;66.97;101275.66;5055307;28;20052;-73
2023/07/19 08:02:40;;;;;;;2.40;2.30;;;23.20;99.90;;;23.65;66.64;101272.50;5055761;28;20053;-72
2023/07/19 08:05:09;;;;;;;2.60;2.50;;;23.30;99.90;;;23.70;66.69;101273.13;5054640;28;20490;-71
2023/07/19 08:07:38;;;;;;;2.90;2.80;;;23.30;99.90;;;23.60;67.34;101271.84;5051769;28;20056;-70
2023/07/19 08:10:07;;;;;;;2.42;2.33;;;23.20;99.90;;;23.56;67.61;101270.25;5055367;28;20049;-71
2023/07/19 08:12:36;;;;;;;2.72;2.63;;;23.20;99.90;;;23.66;68.08;101261.63;5055544;28;20110;-70
2023/07/19 08:15:08;;;;;;;2.70;2.60;;;23.30;99.90;;;23.78;68.06;101266.38;5054176;28;20100;-71
2023/07/19 08:17:37;;;;;;;2.17;2.08;;;23.50;99.90;;;23.93;67.81;101261.97;5055030;28;20445;-73
2023/07/19 08:20:09;;;;;;;2.20;2.10;;;23.60;99.90;;;23.99;66.58;101261.66;5053889;28;20048;-74
2023/07/19 08:22:38;;;;;;;2.35;2.25;;;23.70;99.90;;;23.97;66.68;101256.34;5054749;28;20469;-74
2023/07/19 08:25:08;;;;;;;3.45;3.25;;;23.60;99.90;;;24.13;65.98;101259.13;5051613;28;20045;-72
2023/07/19 08:27:53;;;;;;;2.50;2.40;;;23.80;99.90;;;24.24;65.12;101254.00;5053856;28;20413;-72
2023/07/19 08:30:23;;;;;;;2.30;2.20;;;23.90;99.90;;;24.12;64.78;101255.53;5054630;28;20449;-74
2023/07/19 08:32:52;;;;;;;2.55;2.45;;;23.90;99.90;;;24.26;64.96;101264.72;5051124;28;20053;-72
2023/07/19 08:35:20;;;;;;;2.08;1.98;;;23.90;99.90;;;24.31;65.09;101265.38;5054683;28;20521;-74
2023/07/19 08:37:49;;;;;;;2.55;2.45;;;24.00;99.90;;;24.12;64.59;101260.06;5054609;28;20037;-72
2023/07/19 08:40:17;;;;;;;2.55;2.45;;;23.90;99.90;;;24.26;64.25;101256.63;5054516;28;20060;-73
2023/07/19 08:42:46;;;;;;;2.22;2.13;;;23.90;99.90;;;24.38;63.80;101262.25;5054311;28;20091;-73
2023/07/19 08:45:15;;;;;;;2.22;2.13;;;24.00;99.90;;;24.49;63.32;101259.81;5054641;28;20068;-72
2023/07/19 08:47:47;;;;;;;2.25;2.15;;;24.20;99.90;;;24.59;63.40;101258.34;5054402;28;20073;-71
2023/07/19 08:50:16;;;;;;;2.30;2.20;;;24.30;99.90;;;24.62;61.83;101263.56;5054291;28;20559;-73
2023/07/19 08:52:45;;;;;;;2.30;2.20;;;24.40;99.90;;;24.55;61.68;101259.47;5054555;28;20127;-72
2023/07/19 08:55:13;;;;;;;2.17;2.08;;;24.20;99.90;;;24.62;61.76;101260.84;5050506;28;20053;-71
2023/07/19 08:57:45;;;;;;;7.03;2.58;;;24.30;99.90;;;24.40;62.82;101259.44;5054719;28;20098;-73
2023/07/19 09:00:17;;;;;;;2.20;2.10;;;24.10;99.90;;;24.24;63.68;101258.53;5067949;28;20407;-68
2023/07/19 09:02:47;;;;;;;2.30;2.20;;;23.90;99.90;;;23.98;64.84;101263.47;5054163;28;20045;-71
2023/07/19 09:05:16;;;;;;;2.40;2.30;;;23.60;99.90;;;23.89;65.63;101261.28;5054152;28;20396;-67
2023/07/19 09:07:47;;;;;;;2.75;2.55;;;23.50;99.90;;;23.76;66.10;101260.19;5054272;28;20439;-72
2023/07/19 09:10:19;;;;;;;2.60;2.50;;;23.40;99.90;;;23.61;66.64;101270.91;5050421;28;20094;-72
2023/07/19 09:12:47;;;;;;;2.80;2.70;;;23.20;99.90;;;23.58;67.10;101263.84;5054190;28;20048;-73
2023/07/19 09:15:16;;;;;;;3.65;3.35;;;23.20;99.90;;;23.32;67.43;101263.44;5053198;28;20073;-73
2023/07/19 09:17:48;;;;;;;3.63;2.75;;;23.00;99.90;;;23.07;67.66;101256.50;5053904;28;20040;-73
2023/07/19 09:20:19;;;;;;;2.80;2.70;;;22.80;99.90;;;23.10;68.44;101266.28;5053928;28;20083;-75
2023/07/19 09:22:48;;;;;;;2.85;2.67;;;22.80;99.90;;;23.04;68.98;101278.25;5054058;28;20098;-73
2023/07/19 09:25:16;;;;;;;2.70;2.60;;;22.70;99.90;;;23.03;70.13;101267.56;5054011;28;20060;-72
2023/07/19 09:27:44;;;;;;;2.80;2.70;;;22.70;99.90;;;22.91;69.84;101270.84;5049881;28;20045;-72
2023/07/19 09:30:14;;;;;;;5.50;5.18;;;22.60;99.90;;;22.94;69.94;101274.25;5053617;28;20036;-74
2023/07/19 09:32:43;;;;;;;2.42;2.33;;;22.60;99.90;;;22.98;69.92;101281.25;5053894;28;20053;-74
2023/07/19 09:35:13;;;;;;;2.70;2.60;;;22.70;99.90;;;22.78;70.68;101273.28;5053628;28;20062;-81
2023/07/19 09:37:42;;;;;;;2.97;2.87;;;22.50;99.90;;;22.85;70.69;101271.13;5053525;28;20045;-76
2023/07/19 09:40:11;;;;;;;3.53;3.22;;;22.50;99.90;;;22.72;69.88;101275.38;5053794;28;20041;-74
2023/07/19 09:42:41;;;;;;;2.50;2.40;;;22.40;99.90;;;22.64;70.06;101272.19;5053656;28;20114;-73
2023/07/19 09:45:12;;;;;;;2.80;2.70;;;22.30;99.90;;;22.71;70.68;101269.09;5053307;28;20391;-73
2023/07/19 09:47:41;;;;;;;2.38;2.28;;;22.40;99.90;;;22.58;71.11;101267.94;5050244;28;20041;-73
2023/07/19 09:50:12;;;;;;;2.70;2.60;;;22.30;99.90;;;22.56;70.82;101274.31;5053655;28;20049;-73
2023/07/19 09:52:42;;;;;;;2.70;2.60;;;22.20;99.90;;;22.58;71.31;101272.47;5053228;28;20478;-71
2023/07/19 09:55:12;;;;;;;2.90;2.80;;;22.20;99.90;;;22.68;71.54;101268.38;5053073;28;20128;-70
2023/07/19 09:57:48;;;;;;;2.35;2.25;;;22.30;99.90;;;22.75;71.75;101273.41;5053019;28;20070;-70
2023/07/19 10:00:17;;;;;;;2.50;2.40;;;22.40;99.90;;;22.80;71.71;101273.19;5053188;28;20063;-70
2023/07/19 10:02:46;;;;;;;2.10;2.00;;;22.50;99.90;;;22.77;70.88;101276.91;5049533;28;20374;-70
2023/07/19 10:05:16;;;;;;;2.50;2.40;;;22.50;99.90;;;22.69;70.31;101286.31;5052927;28;20057;-72
2023/07/19 10:07:50;;;;;;;2.53;2.42;;;22.40;99.90;;;22.62;70.87;101284.84;5052887;28;20044;-70
2023/07/19 10:10:20;;;;;;;2.53;2.42;;;22.30;99.90;;;22.51;71.45;101281.75;5052908;28;20502;-71
2023/07/19 10:12:51;;;;;;;2.50;2.40;;;22.20;99.90;;;22.45;70.54;101273.00;5052863;28;20052;-69
2023/07/19 10:15:21;;;;;;;2.47;2.38;;;22.10;99.90;;;22.51;70.67;101276.38;5049264;28;20044;-69
2023/07/19 10:17:59;;;;;;;2.55;2.45;;;22.20;99.90;;;22.49;70.74;101279.16;5052797;28;20056;-73
2023/07/19 10:20:33;;;;;;;2.78;2.67;;;22.20;99.90;;;22.43;70.40;101282.13;5052801;28;20131;-68